Redings Mill, Missouri
Current Conditions -  °F | °C
As of 4:53 PM on Thursday 27 Nov 2014 (Local Time) from KJLN Reporting Station
Clear Clear  
Wind Chill: 37°   Ceiling: Unl
Heat Index: 40°   Visibility: 10mi
Dew Point: 20°   Wind: 5mph
Humidity: 45%   Direction: 120°ESE
Pressure: 30.4"   Gusts: NA
Location:  37.1074°N, 94.5218°W
Report Text: KJLN 272253Z 12004KT 10SM CLR 04/M07 A3040 RMK AO2 SLP303 T00441067
Loading
Personal Weather Stations






























Interactive Weather Map New forecast layout! Learn more

10-Day Weather Forecast

Advertisements
Track Severe Weather on mobile